Terminal Aerodrome Forecast
Issued by NWS

Home | Current Version | Previous Version | Text Only | Print | Product List | Glossary On
Versions: 1 2 3 4 5 6 7 8 9 10 11 12 13
180
FTUS46 KHNX 111736
TAFFAT
TAF
KFAT 111736Z 1118/1218 VRB03KT P6SM SCT200
     FM120800 VRB02KT 5SM HZ BR SCT200=

USA.gov is the U.S. government's official web portal to all federal, state and local government web resources and services.